sensor_id;sensor_type;location;lat;lon;timestamp;P1;durP1;ratioP1;P2;durP2;ratioP2
42754;SDS011;28407;51.830;5.684;2022-12-18T00:00:56;30.55;;;17.13;;
42754;SDS011;28407;51.830;5.684;2022-12-18T00:02:56;37.13;;;19.15;;
42754;SDS011;28407;51.830;5.684;2022-12-18T00:04:57;29.63;;;17.67;;
42754;SDS011;28407;51.830;5.684;2022-12-18T00:06:59;35.92;;;19.80;;
42754;SDS011;28407;51.830;5.684;2022-12-18T00:09:00;30.52;;;17.70;;
42754;SDS011;28407;51.830;5.684;2022-12-18T00:11:04;33.17;;;16.67;;
42754;SDS011;28407;51.830;5.684;2022-12-18T00:13:06;33.40;;;19.83;;
42754;SDS011;28407;51.830;5.684;2022-12-18T00:15:06;26.80;;;15.65;;
42754;SDS011;28407;51.830;5.684;2022-12-18T00:17:07;29.52;;;16.58;;
42754;SDS011;28407;51.830;5.684;2022-12-18T00:19:08;32.65;;;16.33;;
42754;SDS011;28407;51.830;5.684;2022-12-18T00:23:12;29.08;;;17.13;;
42754;SDS011;28407;51.830;5.684;2022-12-18T00:25:12;31.07;;;14.13;;
42754;SDS011;28407;51.830;5.684;2022-12-18T00:27:13;28.50;;;17.33;;
42754;SDS011;28407;51.830;5.684;2022-12-18T00:29:13;26.80;;;16.27;;
42754;SDS011;28407;51.830;5.684;2022-12-18T00:31:15;24.38;;;15.45;;
42754;SDS011;28407;51.830;5.684;2022-12-18T00:33:19;27.00;;;16.83;;
42754;SDS011;28407;51.830;5.684;2022-12-18T00:35:19;29.85;;;15.50;;
42754;SDS011;28407;51.830;5.684;2022-12-18T00:37:20;24.33;;;13.80;;
42754;SDS011;28407;51.830;5.684;2022-12-18T00:39:24;27.67;;;16.10;;
42754;SDS011;28407;51.830;5.684;2022-12-18T00:41:25;32.22;;;19.15;;
42754;SDS011;28407;51.830;5.684;2022-12-18T00:43:45;33.45;;;17.48;;
42754;SDS011;28407;51.830;5.684;2022-12-18T00:45:46;25.40;;;16.08;;
42754;SDS011;28407;51.830;5.684;2022-12-18T00:47:47;32.00;;;16.80;;
42754;SDS011;28407;51.830;5.684;2022-12-18T00:49:47;25.77;;;13.90;;
42754;SDS011;28407;51.830;5.684;2022-12-18T00:51:48;31.00;;;17.87;;
42754;SDS011;28407;51.830;5.684;2022-12-18T00:53:50;35.47;;;17.80;;
42754;SDS011;28407;51.830;5.684;2022-12-18T00:55:51;22.87;;;14.63;;
42754;SDS011;28407;51.830;5.684;2022-12-18T00:57:51;31.77;;;18.70;;
42754;SDS011;28407;51.830;5.684;2022-12-18T00:59:52;27.05;;;14.95;;
42754;SDS011;28407;51.830;5.684;2022-12-18T01:01:53;24.60;;;13.35;;
42754;SDS011;28407;51.830;5.684;2022-12-18T01:03:54;31.47;;;18.23;;
42754;SDS011;28407;51.830;5.684;2022-12-18T01:05:57;31.58;;;17.58;;
42754;SDS011;28407;51.830;5.684;2022-12-18T01:07:58;37.53;;;19.95;;
42754;SDS011;28407;51.830;5.684;2022-12-18T01:09:59;32.33;;;17.40;;
42754;SDS011;28407;51.830;5.684;2022-12-18T01:12:00;27.08;;;16.23;;
42754;SDS011;28407;51.830;5.684;2022-12-18T01:14:00;31.83;;;16.98;;
42754;SDS011;28407;51.830;5.684;2022-12-18T01:16:01;32.00;;;16.47;;
42754;SDS011;28407;51.830;5.684;2022-12-18T01:18:05;29.85;;;18.85;;
42754;SDS011;28407;51.830;5.684;2022-12-18T01:20:07;29.27;;;17.80;;
42754;SDS011;28407;51.830;5.684;2022-12-18T01:24:10;29.48;;;14.38;;
42754;SDS011;28407;51.830;5.684;2022-12-18T01:26:15;26.80;;;16.67;;
42754;SDS011;28407;51.830;5.684;2022-12-18T01:28:17;28.33;;;16.70;;
42754;SDS011;28407;51.830;5.684;2022-12-18T01:30:17;27.48;;;15.73;;
42754;SDS011;28407;51.830;5.684;2022-12-18T01:32:19;26.65;;;16.10;;
42754;SDS011;28407;51.830;5.684;2022-12-18T01:34:20;25.85;;;15.82;;
42754;SDS011;28407;51.830;5.684;2022-12-18T01:36:22;26.95;;;16.05;;
42754;SDS011;28407;51.830;5.684;2022-12-18T01:38:26;24.40;;;16.25;;
42754;SDS011;28407;51.830;5.684;2022-12-18T01:40:28;26.00;;;16.73;;
42754;SDS011;28407;51.830;5.684;2022-12-18T01:42:29;23.52;;;14.90;;
42754;SDS011;28407;51.830;5.684;2022-12-18T01:47:18;22.05;;;12.98;;
42754;SDS011;28407;51.830;5.684;2022-12-18T01:49:23;22.80;;;14.65;;
42754;SDS011;28407;51.830;5.684;2022-12-18T01:51:24;22.65;;;15.40;;
42754;SDS011;28407;51.830;5.684;2022-12-18T01:53:26;25.95;;;14.32;;
42754;SDS011;28407;51.830;5.684;2022-12-18T01:55:29;22.45;;;13.45;;
42754;SDS011;28407;51.830;5.684;2022-12-18T01:57:35;23.77;;;15.10;;
42754;SDS011;28407;51.830;5.684;2022-12-18T01:59:36;21.38;;;14.85;;
42754;SDS011;28407;51.830;5.684;2022-12-18T02:01:39;21.58;;;13.32;;
42754;SDS011;28407;51.830;5.684;2022-12-18T02:03:43;15.88;;;10.82;;
42754;SDS011;28407;51.830;5.684;2022-12-18T02:14:28;20.80;;;11.82;;
42754;SDS011;28407;51.830;5.684;2022-12-18T02:16:42;22.15;;;13.45;;
42754;SDS011;28407;51.830;5.684;2022-12-18T02:18:50;21.33;;;12.13;;
42754;SDS011;28407;51.830;5.684;2022-12-18T02:21:07;15.48;;;11.57;;
42754;SDS011;28407;51.830;5.684;2022-12-18T02:23:32;19.17;;;13.00;;
42754;SDS011;28407;51.830;5.684;2022-12-18T02:28:17;17.88;;;12.25;;
42754;SDS011;28407;51.830;5.684;2022-12-18T02:30:21;23.20;;;14.20;;
42754;SDS011;28407;51.830;5.684;2022-12-18T02:32:34;18.85;;;11.82;;
42754;SDS011;28407;51.830;5.684;2022-12-18T02:34:40;18.02;;;13.05;;
42754;SDS011;28407;51.830;5.684;2022-12-18T02:36:46;18.98;;;11.70;;
42754;SDS011;28407;51.830;5.684;2022-12-18T02:38:49;16.88;;;10.70;;
42754;SDS011;28407;51.830;5.684;2022-12-18T02:40:53;17.17;;;11.73;;
42754;SDS011;28407;51.830;5.684;2022-12-18T02:42:55;16.15;;;11.18;;
42754;SDS011;28407;51.830;5.684;2022-12-18T02:45:02;16.58;;;11.88;;
42754;SDS011;28407;51.830;5.684;2022-12-18T02:47:03;19.42;;;13.02;;
42754;SDS011;28407;51.830;5.684;2022-12-18T02:51:40;22.17;;;12.70;;
42754;SDS011;28407;51.830;5.684;2022-12-18T02:53:45;20.13;;;11.88;;
42754;SDS011;28407;51.830;5.684;2022-12-18T02:56:15;14.95;;;11.52;;
42754;SDS011;28407;51.830;5.684;2022-12-18T02:59:06;16.05;;;11.43;;
42754;SDS011;28407;51.830;5.684;2022-12-18T03:01:16;19.50;;;12.15;;
42754;SDS011;28407;51.830;5.684;2022-12-18T03:05:31;20.20;;;12.98;;
42754;SDS011;28407;51.830;5.684;2022-12-18T03:07:37;18.00;;;12.32;;
42754;SDS011;28407;51.830;5.684;2022-12-18T03:09:47;15.63;;;10.30;;
42754;SDS011;28407;51.830;5.684;2022-12-18T03:11:53;14.35;;;9.95;;
42754;SDS011;28407;51.830;5.684;2022-12-18T03:14:17;21.90;;;12.63;;
42754;SDS011;28407;51.830;5.684;2022-12-18T03:16:22;18.27;;;11.40;;
42754;SDS011;28407;51.830;5.684;2022-12-18T03:20:48;16.70;;;11.27;;
42754;SDS011;28407;51.830;5.684;2022-12-18T03:22:56;16.67;;;11.68;;
42754;SDS011;28407;51.830;5.684;2022-12-18T03:25:03;15.15;;;10.68;;
42754;SDS011;28407;51.830;5.684;2022-12-18T03:27:10;18.63;;;12.63;;
42754;SDS011;28407;51.830;5.684;2022-12-18T03:29:17;15.00;;;9.88;;
42754;SDS011;28407;51.830;5.684;2022-12-18T03:31:23;18.58;;;12.63;;
42754;SDS011;28407;51.830;5.684;2022-12-18T03:33:29;17.08;;;11.32;;
42754;SDS011;28407;51.830;5.684;2022-12-18T03:35:43;14.40;;;10.70;;
42754;SDS011;28407;51.830;5.684;2022-12-18T03:37:46;18.77;;;12.10;;
42754;SDS011;28407;51.830;5.684;2022-12-18T03:39:47;15.15;;;8.80;;
42754;SDS011;28407;51.830;5.684;2022-12-18T03:41:51;16.02;;;11.85;;
42754;SDS011;28407;51.830;5.684;2022-12-18T03:44:29;15.25;;;10.68;;
42754;SDS011;28407;51.830;5.684;2022-12-18T03:49:08;13.32;;;10.68;;
42754;SDS011;28407;51.830;5.684;2022-12-18T03:51:15;14.90;;;9.70;;
42754;SDS011;28407;51.830;5.684;2022-12-18T03:53:25;16.30;;;11.50;;
42754;SDS011;28407;51.830;5.684;2022-12-18T03:55:46;15.98;;;11.07;;
42754;SDS011;28407;51.830;5.684;2022-12-18T03:57:49;14.63;;;10.88;;
42754;SDS011;28407;51.830;5.684;2022-12-18T03:59:54;14.27;;;9.10;;
42754;SDS011;28407;51.830;5.684;2022-12-18T04:02:03;11.00;;;9.20;;
42754;SDS011;28407;51.830;5.684;2022-12-18T04:04:06;14.23;;;9.93;;
42754;SDS011;28407;51.830;5.684;2022-12-18T04:06:12;14.25;;;9.07;;
42754;SDS011;28407;51.830;5.684;2022-12-18T04:08:15;16.20;;;10.75;;
42754;SDS011;28407;51.830;5.684;2022-12-18T04:10:23;12.65;;;10.00;;
42754;SDS011;28407;51.830;5.684;2022-12-18T04:12:25;15.45;;;9.13;;
42754;SDS011;28407;51.830;5.684;2022-12-18T04:16:29;13.20;;;9.55;;
42754;SDS011;28407;51.830;5.684;2022-12-18T04:18:34;13.77;;;9.32;;
42754;SDS011;28407;51.830;5.684;2022-12-18T04:20:36;10.30;;;8.27;;
42754;SDS011;28407;51.830;5.684;2022-12-18T04:22:37;11.73;;;8.20;;
42754;SDS011;28407;51.830;5.684;2022-12-18T04:24:37;12.65;;;9.07;;
42754;SDS011;28407;51.830;5.684;2022-12-18T04:26:45;10.57;;;8.25;;
42754;SDS011;28407;51.830;5.684;2022-12-18T04:29:06;12.85;;;8.05;;
42754;SDS011;28407;51.830;5.684;2022-12-18T04:31:07;12.77;;;7.23;;
42754;SDS011;28407;51.830;5.684;2022-12-18T04:33:11;9.93;;;7.73;;
42754;SDS011;28407;51.830;5.684;2022-12-18T04:35:16;11.65;;;8.65;;
42754;SDS011;28407;51.830;5.684;2022-12-18T04:39:20;12.98;;;8.52;;
42754;SDS011;28407;51.830;5.684;2022-12-18T04:41:23;11.15;;;7.93;;
42754;SDS011;28407;51.830;5.684;2022-12-18T04:43:25;16.33;;;10.10;;
42754;SDS011;28407;51.830;5.684;2022-12-18T04:45:26;15.17;;;10.97;;
42754;SDS011;28407;51.830;5.684;2022-12-18T04:47:27;18.40;;;9.70;;
42754;SDS011;28407;51.830;5.684;2022-12-18T04:49:27;12.10;;;8.20;;
42754;SDS011;28407;51.830;5.684;2022-12-18T04:51:28;12.53;;;8.77;;
42754;SDS011;28407;51.830;5.684;2022-12-18T04:53:29;9.53;;;6.83;;
42754;SDS011;28407;51.830;5.684;2022-12-18T04:55:29;9.23;;;7.07;;
42754;SDS011;28407;51.830;5.684;2022-12-18T04:57:30;11.30;;;8.80;;
42754;SDS011;28407;51.830;5.684;2022-12-18T04:59:31;12.47;;;8.37;;
42754;SDS011;28407;51.830;5.684;2022-12-18T05:01:31;13.68;;;8.35;;
42754;SDS011;28407;51.830;5.684;2022-12-18T05:03:32;10.30;;;7.73;;
42754;SDS011;28407;51.830;5.684;2022-12-18T05:05:36;7.22;;;6.28;;
42754;SDS011;28407;51.830;5.684;2022-12-18T05:07:37;11.82;;;7.65;;
42754;SDS011;28407;51.830;5.684;2022-12-18T05:09:37;10.00;;;7.90;;
42754;SDS011;28407;51.830;5.684;2022-12-18T05:11:38;12.50;;;7.90;;
42754;SDS011;28407;51.830;5.684;2022-12-18T05:13:39;9.97;;;8.20;;
42754;SDS011;28407;51.830;5.684;2022-12-18T05:15:39;12.07;;;8.63;;
42754;SDS011;28407;51.830;5.684;2022-12-18T05:19:42;10.68;;;7.63;;
42754;SDS011;28407;51.830;5.684;2022-12-18T05:21:43;10.07;;;7.57;;
42754;SDS011;28407;51.830;5.684;2022-12-18T05:23:44;12.37;;;8.73;;
42754;SDS011;28407;51.830;5.684;2022-12-18T05:26:18;10.03;;;8.47;;
42754;SDS011;28407;51.830;5.684;2022-12-18T05:28:14;10.93;;;7.13;;
42754;SDS011;28407;51.830;5.684;2022-12-18T05:30:15;11.40;;;8.17;;
42754;SDS011;28407;51.830;5.684;2022-12-18T05:32:16;11.40;;;9.48;;
42754;SDS011;28407;51.830;5.684;2022-12-18T05:34:17;11.97;;;9.10;;
42754;SDS011;28407;51.830;5.684;2022-12-18T05:36:17;12.40;;;8.10;;
42754;SDS011;28407;51.830;5.684;2022-12-18T05:38:18;13.83;;;8.97;;
42754;SDS011;28407;51.830;5.684;2022-12-18T05:42:20;11.93;;;8.00;;
42754;SDS011;28407;51.830;5.684;2022-12-18T05:44:21;11.90;;;8.85;;
42754;SDS011;28407;51.830;5.684;2022-12-18T05:46:22;10.93;;;8.53;;
42754;SDS011;28407;51.830;5.684;2022-12-18T05:48:22;13.77;;;8.90;;
42754;SDS011;28407;51.830;5.684;2022-12-18T05:50:23;10.50;;;9.27;;
42754;SDS011;28407;51.830;5.684;2022-12-18T05:52:24;13.87;;;8.57;;
42754;SDS011;28407;51.830;5.684;2022-12-18T05:54:26;12.18;;;8.00;;
42754;SDS011;28407;51.830;5.684;2022-12-18T05:56:28;11.00;;;7.93;;
42754;SDS011;28407;51.830;5.684;2022-12-18T05:58:28;13.57;;;9.17;;
42754;SDS011;28407;51.830;5.684;2022-12-18T06:00:30;12.25;;;6.82;;
42754;SDS011;28407;51.830;5.684;2022-12-18T06:02:32;11.85;;;8.30;;
42754;SDS011;28407;51.830;5.684;2022-12-18T06:04:32;12.17;;;8.17;;
42754;SDS011;28407;51.830;5.684;2022-12-18T06:06:33;13.17;;;8.80;;
42754;SDS011;28407;51.830;5.684;2022-12-18T06:08:34;11.30;;;8.80;;
42754;SDS011;28407;51.830;5.684;2022-12-18T06:10:34;9.65;;;8.13;;
42754;SDS011;28407;51.830;5.684;2022-12-18T06:12:35;14.30;;;8.83;;
42754;SDS011;28407;51.830;5.684;2022-12-18T06:14:36;8.60;;;7.00;;
42754;SDS011;28407;51.830;5.684;2022-12-18T06:16:37;10.70;;;7.13;;
42754;SDS011;28407;51.830;5.684;2022-12-18T06:18:37;9.87;;;8.00;;
42754;SDS011;28407;51.830;5.684;2022-12-18T06:20:38;11.17;;;8.93;;
42754;SDS011;28407;51.830;5.684;2022-12-18T06:22:41;11.10;;;8.50;;
42754;SDS011;28407;51.830;5.684;2022-12-18T06:24:41;10.97;;;8.53;;
42754;SDS011;28407;51.830;5.684;2022-12-18T06:26:42;14.27;;;10.07;;
42754;SDS011;28407;51.830;5.684;2022-12-18T06:28:43;12.77;;;8.37;;
42754;SDS011;28407;51.830;5.684;2022-12-18T06:30:44;11.30;;;9.47;;
42754;SDS011;28407;51.830;5.684;2022-12-18T06:32:45;14.55;;;9.05;;
42754;SDS011;28407;51.830;5.684;2022-12-18T06:34:46;11.97;;;9.10;;
42754;SDS011;28407;51.830;5.684;2022-12-18T06:36:46;9.17;;;6.87;;
42754;SDS011;28407;51.830;5.684;2022-12-18T06:38:47;8.47;;;6.77;;
42754;SDS011;28407;51.830;5.684;2022-12-18T06:40:47;8.57;;;5.90;;
42754;SDS011;28407;51.830;5.684;2022-12-18T06:42:48;13.10;;;8.97;;
42754;SDS011;28407;51.830;5.684;2022-12-18T06:44:49;15.37;;;9.03;;
42754;SDS011;28407;51.830;5.684;2022-12-18T06:46:49;10.88;;;8.07;;
42754;SDS011;28407;51.830;5.684;2022-12-18T06:48:50;10.23;;;8.43;;
42754;SDS011;28407;51.830;5.684;2022-12-18T06:50:50;9.40;;;7.33;;
42754;SDS011;28407;51.830;5.684;2022-12-18T06:52:51;10.20;;;7.53;;
42754;SDS011;28407;51.830;5.684;2022-12-18T06:54:52;11.03;;;7.90;;
42754;SDS011;28407;51.830;5.684;2022-12-18T06:56:52;11.13;;;7.80;;
42754;SDS011;28407;51.830;5.684;2022-12-18T06:58:55;9.45;;;6.90;;
42754;SDS011;28407;51.830;5.684;2022-12-18T07:01:00;15.13;;;9.50;;
42754;SDS011;28407;51.830;5.684;2022-12-18T07:03:01;8.82;;;7.72;;
42754;SDS011;28407;51.830;5.684;2022-12-18T07:05:02;8.43;;;7.10;;
42754;SDS011;28407;51.830;5.684;2022-12-18T07:07:03;8.57;;;6.50;;
42754;SDS011;28407;51.830;5.684;2022-12-18T07:09:03;13.20;;;9.73;;
42754;SDS011;28407;51.830;5.684;2022-12-18T07:11:04;12.00;;;8.80;;
42754;SDS011;28407;51.830;5.684;2022-12-18T07:13:05;11.67;;;8.83;;
42754;SDS011;28407;51.830;5.684;2022-12-18T07:15:05;11.10;;;7.10;;
42754;SDS011;28407;51.830;5.684;2022-12-18T07:17:06;12.77;;;9.85;;
42754;SDS011;28407;51.830;5.684;2022-12-18T07:19:07;11.07;;;8.30;;
42754;SDS011;28407;51.830;5.684;2022-12-18T07:21:10;8.90;;;7.80;;
42754;SDS011;28407;51.830;5.684;2022-12-18T07:23:12;12.23;;;7.45;;
42754;SDS011;28407;51.830;5.684;2022-12-18T07:25:13;12.73;;;9.27;;
42754;SDS011;28407;51.830;5.684;2022-12-18T07:27:14;10.03;;;7.63;;
42754;SDS011;28407;51.830;5.684;2022-12-18T07:29:14;11.20;;;7.90;;
42754;SDS011;28407;51.830;5.684;2022-12-18T07:31:17;9.97;;;7.30;;
42754;SDS011;28407;51.830;5.684;2022-12-18T07:33:19;9.70;;;7.57;;
42754;SDS011;28407;51.830;5.684;2022-12-18T07:35:19;9.43;;;7.40;;
42754;SDS011;28407;51.830;5.684;2022-12-18T07:37:20;9.43;;;7.60;;
42754;SDS011;28407;51.830;5.684;2022-12-18T07:39:21;10.15;;;7.88;;
42754;SDS011;28407;51.830;5.684;2022-12-18T07:41:21;10.70;;;7.83;;
42754;SDS011;28407;51.830;5.684;2022-12-18T07:43:22;10.20;;;7.73;;
42754;SDS011;28407;51.830;5.684;2022-12-18T07:45:23;8.70;;;6.43;;
42754;SDS011;28407;51.830;5.684;2022-12-18T07:47:23;12.60;;;8.73;;
42754;SDS011;28407;51.830;5.684;2022-12-18T07:49:24;12.17;;;7.47;;
42754;SDS011;28407;51.830;5.684;2022-12-18T07:51:25;11.87;;;8.73;;
42754;SDS011;28407;51.830;5.684;2022-12-18T07:53:25;10.53;;;7.10;;
42754;SDS011;28407;51.830;5.684;2022-12-18T07:55:26;11.07;;;8.27;;
42754;SDS011;28407;51.830;5.684;2022-12-18T07:57:27;9.45;;;7.55;;
42754;SDS011;28407;51.830;5.684;2022-12-18T07:59:27;10.43;;;7.90;;
42754;SDS011;28407;51.830;5.684;2022-12-18T08:01:28;10.40;;;7.73;;
42754;SDS011;28407;51.830;5.684;2022-12-18T08:03:28;11.03;;;7.37;;
42754;SDS011;28407;51.830;5.684;2022-12-18T08:05:29;8.88;;;5.72;;
42754;SDS011;28407;51.830;5.684;2022-12-18T08:07:30;10.73;;;8.17;;
42754;SDS011;28407;51.830;5.684;2022-12-18T08:09:30;10.33;;;7.17;;
42754;SDS011;28407;51.830;5.684;2022-12-18T08:11:31;10.60;;;7.73;;
42754;SDS011;28407;51.830;5.684;2022-12-18T08:13:32;9.40;;;6.73;;
42754;SDS011;28407;51.830;5.684;2022-12-18T08:15:32;12.63;;;8.30;;
42754;SDS011;28407;51.830;5.684;2022-12-18T08:17:33;12.57;;;7.97;;
42754;SDS011;28407;51.830;5.684;2022-12-18T08:19:33;11.17;;;7.47;;
42754;SDS011;28407;51.830;5.684;2022-12-18T08:21:34;11.17;;;7.87;;
42754;SDS011;28407;51.830;5.684;2022-12-18T08:23:35;11.20;;;8.47;;
42754;SDS011;28407;51.830;5.684;2022-12-18T08:25:36;11.02;;;7.43;;
42754;SDS011;28407;51.830;5.684;2022-12-18T08:27:36;12.97;;;7.50;;
42754;SDS011;28407;51.830;5.684;2022-12-18T08:29:37;13.52;;;8.85;;
42754;SDS011;28407;51.830;5.684;2022-12-18T08:31:38;7.87;;;6.03;;
42754;SDS011;28407;51.830;5.684;2022-12-18T08:33:39;8.27;;;6.37;;
42754;SDS011;28407;51.830;5.684;2022-12-18T08:35:40;13.40;;;8.65;;
42754;SDS011;28407;51.830;5.684;2022-12-18T08:37:41;15.20;;;9.20;;
42754;SDS011;28407;51.830;5.684;2022-12-18T08:39:41;9.40;;;6.77;;
42754;SDS011;28407;51.830;5.684;2022-12-18T08:41:42;14.63;;;9.13;;
42754;SDS011;28407;51.830;5.684;2022-12-18T08:44:02;10.00;;;7.65;;
42754;SDS011;28407;51.830;5.684;2022-12-18T08:46:22;11.50;;;9.02;;
42754;SDS011;28407;51.830;5.684;2022-12-18T08:48:24;9.23;;;7.10;;
42754;SDS011;28407;51.830;5.684;2022-12-18T08:50:25;9.43;;;7.73;;
42754;SDS011;28407;51.830;5.684;2022-12-18T08:52:25;12.00;;;8.48;;
42754;SDS011;28407;51.830;5.684;2022-12-18T08:54:26;12.87;;;8.70;;
42754;SDS011;28407;51.830;5.684;2022-12-18T08:56:28;9.02;;;6.70;;
42754;SDS011;28407;51.830;5.684;2022-12-18T08:58:30;9.05;;;6.88;;
42754;SDS011;28407;51.830;5.684;2022-12-18T09:00:30;11.03;;;7.30;;
42754;SDS011;28407;51.830;5.684;2022-12-18T09:02:31;9.60;;;7.40;;
42754;SDS011;28407;51.830;5.684;2022-12-18T09:04:31;10.30;;;8.43;;
42754;SDS011;28407;51.830;5.684;2022-12-18T09:06:32;10.80;;;7.80;;
42754;SDS011;28407;51.830;5.684;2022-12-18T09:08:33;9.40;;;7.83;;
42754;SDS011;28407;51.830;5.684;2022-12-18T09:10:34;9.50;;;7.57;;
42754;SDS011;28407;51.830;5.684;2022-12-18T09:12:34;11.10;;;6.80;;
42754;SDS011;28407;51.830;5.684;2022-12-18T09:14:35;7.05;;;6.25;;
42754;SDS011;28407;51.830;5.684;2022-12-18T09:16:36;9.53;;;7.07;;
42754;SDS011;28407;51.830;5.684;2022-12-18T09:18:36;11.70;;;7.97;;
42754;SDS011;28407;51.830;5.684;2022-12-18T09:20:37;10.18;;;8.40;;
42754;SDS011;28407;51.830;5.684;2022-12-18T09:22:38;12.03;;;8.93;;
42754;SDS011;28407;51.830;5.684;2022-12-18T09:24:39;10.07;;;7.38;;
42754;SDS011;28407;51.830;5.684;2022-12-18T09:26:39;10.50;;;7.77;;
42754;SDS011;28407;51.830;5.684;2022-12-18T09:28:40;9.98;;;7.03;;
42754;SDS011;28407;51.830;5.684;2022-12-18T09:30:42;8.93;;;7.77;;
42754;SDS011;28407;51.830;5.684;2022-12-18T09:32:45;11.05;;;8.43;;
42754;SDS011;28407;51.830;5.684;2022-12-18T09:34:45;8.50;;;6.40;;
42754;SDS011;28407;51.830;5.684;2022-12-18T09:36:46;11.98;;;8.00;;
42754;SDS011;28407;51.830;5.684;2022-12-18T09:38:46;11.70;;;6.87;;
42754;SDS011;28407;51.830;5.684;2022-12-18T09:40:55;9.20;;;7.53;;
42754;SDS011;28407;51.830;5.684;2022-12-18T09:43:00;10.77;;;7.00;;
42754;SDS011;28407;51.830;5.684;2022-12-18T09:45:04;11.02;;;7.97;;
42754;SDS011;28407;51.830;5.684;2022-12-18T09:49:18;10.20;;;7.32;;
42754;SDS011;28407;51.830;5.684;2022-12-18T09:51:27;9.07;;;6.97;;
42754;SDS011;28407;51.830;5.684;2022-12-18T09:53:33;12.15;;;8.57;;
42754;SDS011;28407;51.830;5.684;2022-12-18T09:55:40;11.55;;;8.60;;
42754;SDS011;28407;51.830;5.684;2022-12-18T09:57:45;11.50;;;8.75;;
42754;SDS011;28407;51.830;5.684;2022-12-18T10:00:24;12.98;;;8.52;;
42754;SDS011;28407;51.830;5.684;2022-12-18T10:02:20;12.90;;;8.82;;
42754;SDS011;28407;51.830;5.684;2022-12-18T10:04:24;10.55;;;7.90;;
42754;SDS011;28407;51.830;5.684;2022-12-18T10:10:45;11.65;;;7.32;;
42754;SDS011;28407;51.830;5.684;2022-12-18T10:19:45;11.40;;;7.88;;
42754;SDS011;28407;51.830;5.684;2022-12-18T10:22:02;9.90;;;6.45;;
42754;SDS011;28407;51.830;5.684;2022-12-18T10:26:14;10.35;;;7.22;;
42754;SDS011;28407;51.830;5.684;2022-12-18T10:28:15;11.18;;;8.35;;
42754;SDS011;28407;51.830;5.684;2022-12-18T10:30:19;10.57;;;8.85;;
42754;SDS011;28407;51.830;5.684;2022-12-18T10:32:30;13.38;;;8.70;;
42754;SDS011;28407;51.830;5.684;2022-12-18T10:34:31;11.13;;;7.68;;
42754;SDS011;28407;51.830;5.684;2022-12-18T10:36:31;10.65;;;8.65;;
42754;SDS011;28407;51.830;5.684;2022-12-18T10:38:32;11.88;;;8.02;;
42754;SDS011;28407;51.830;5.684;2022-12-18T10:40:36;10.17;;;7.57;;
42754;SDS011;28407;51.830;5.684;2022-12-18T10:43:03;11.25;;;7.80;;
42754;SDS011;28407;51.830;5.684;2022-12-18T10:45:15;13.98;;;8.68;;
42754;SDS011;28407;51.830;5.684;2022-12-18T10:47:17;12.05;;;8.43;;
42754;SDS011;28407;51.830;5.684;2022-12-18T10:49:31;11.20;;;8.43;;
42754;SDS011;28407;51.830;5.684;2022-12-18T10:51:34;10.38;;;7.80;;
42754;SDS011;28407;51.830;5.684;2022-12-18T10:53:37;9.23;;;6.68;;
42754;SDS011;28407;51.830;5.684;2022-12-18T10:55:40;15.40;;;8.57;;
42754;SDS011;28407;51.830;5.684;2022-12-18T10:57:45;9.93;;;7.05;;
42754;SDS011;28407;51.830;5.684;2022-12-18T10:59:52;10.85;;;7.82;;
42754;SDS011;28407;51.830;5.684;2022-12-18T11:01:57;12.40;;;9.20;;
42754;SDS011;28407;51.830;5.684;2022-12-18T11:03:59;12.40;;;8.45;;
42754;SDS011;28407;51.830;5.684;2022-12-18T11:06:03;9.45;;;7.68;;
42754;SDS011;28407;51.830;5.684;2022-12-18T11:08:20;10.55;;;7.40;;
42754;SDS011;28407;51.830;5.684;2022-12-18T11:12:31;9.15;;;7.38;;
42754;SDS011;28407;51.830;5.684;2022-12-18T11:14:33;9.40;;;7.03;;
42754;SDS011;28407;51.830;5.684;2022-12-18T11:16:44;9.77;;;7.40;;
42754;SDS011;28407;51.830;5.684;2022-12-18T11:18:46;11.30;;;7.47;;
42754;SDS011;28407;51.830;5.684;2022-12-18T11:20:50;10.20;;;8.50;;
42754;SDS011;28407;51.830;5.684;2022-12-18T11:23:17;11.00;;;8.82;;
42754;SDS011;28407;51.830;5.684;2022-12-18T11:25:22;14.38;;;9.10;;
42754;SDS011;28407;51.830;5.684;2022-12-18T11:27:23;11.05;;;8.70;;
42754;SDS011;28407;51.830;5.684;2022-12-18T11:29:27;16.67;;;7.60;;
42754;SDS011;28407;51.830;5.684;2022-12-18T11:31:36;11.65;;;8.45;;
42754;SDS011;28407;51.830;5.684;2022-12-18T11:33:37;10.20;;;8.40;;
42754;SDS011;28407;51.830;5.684;2022-12-18T11:35:48;12.07;;;7.80;;
42754;SDS011;28407;51.830;5.684;2022-12-18T11:38:01;12.35;;;8.63;;
42754;SDS011;28407;51.830;5.684;2022-12-18T11:40:09;11.27;;;8.40;;
42754;SDS011;28407;51.830;5.684;2022-12-18T11:42:28;13.15;;;9.13;;
42754;SDS011;28407;51.830;5.684;2022-12-18T11:44:50;10.38;;;6.95;;
42754;SDS011;28407;51.830;5.684;2022-12-18T11:49:42;11.98;;;8.30;;
42754;SDS011;28407;51.830;5.684;2022-12-18T11:51:56;11.38;;;7.78;;
42754;SDS011;28407;51.830;5.684;2022-12-18T11:54:08;10.50;;;7.43;;
42754;SDS011;28407;51.830;5.684;2022-12-18T11:56:23;12.82;;;9.80;;
42754;SDS011;28407;51.830;5.684;2022-12-18T11:58:45;12.00;;;9.13;;
42754;SDS011;28407;51.830;5.684;2022-12-18T12:01:29;12.88;;;9.73;;
42754;SDS011;28407;51.830;5.684;2022-12-18T12:05:59;11.18;;;7.90;;
42754;SDS011;28407;51.830;5.684;2022-12-18T12:08:19;12.77;;;8.63;;
42754;SDS011;28407;51.830;5.684;2022-12-18T12:12:34;11.18;;;8.18;;
42754;SDS011;28407;51.830;5.684;2022-12-18T12:19:48;11.38;;;7.93;;
42754;SDS011;28407;51.830;5.684;2022-12-18T12:22:13;10.48;;;7.95;;
42754;SDS011;28407;51.830;5.684;2022-12-18T12:24:42;12.85;;;8.32;;
42754;SDS011;28407;51.830;5.684;2022-12-18T12:26:59;10.90;;;8.27;;
42754;SDS011;28407;51.830;5.684;2022-12-18T12:29:07;11.25;;;8.75;;
42754;SDS011;28407;51.830;5.684;2022-12-18T12:31:33;11.90;;;9.15;;
42754;SDS011;28407;51.830;5.684;2022-12-18T12:34:01;10.65;;;7.78;;
42754;SDS011;28407;51.830;5.684;2022-12-18T12:36:29;13.00;;;9.65;;
42754;SDS011;28407;51.830;5.684;2022-12-18T12:38:53;10.57;;;8.00;;
42754;SDS011;28407;51.830;5.684;2022-12-18T12:40:59;11.18;;;8.82;;
42754;SDS011;28407;51.830;5.684;2022-12-18T12:43:31;12.52;;;9.20;;
42754;SDS011;28407;51.830;5.684;2022-12-18T12:47:53;12.10;;;8.95;;
42754;SDS011;28407;51.830;5.684;2022-12-18T12:49:57;11.80;;;9.07;;
42754;SDS011;28407;51.830;5.684;2022-12-18T12:52:07;15.15;;;8.98;;
42754;SDS011;28407;51.830;5.684;2022-12-18T12:54:17;11.23;;;8.32;;
42754;SDS011;28407;51.830;5.684;2022-12-18T12:56:21;12.70;;;9.45;;
42754;SDS011;28407;51.830;5.684;2022-12-18T12:58:29;13.57;;;9.02;;
42754;SDS011;28407;51.830;5.684;2022-12-18T13:08:09;9.48;;;7.10;;
42754;SDS011;28407;51.830;5.684;2022-12-18T13:12:25;10.55;;;7.55;;
42754;SDS011;28407;51.830;5.684;2022-12-18T13:14:44;12.13;;;7.93;;
42754;SDS011;28407;51.830;5.684;2022-12-18T13:16:44;10.48;;;8.98;;
42754;SDS011;28407;51.830;5.684;2022-12-18T13:18:49;11.43;;;8.73;;
42754;SDS011;28407;51.830;5.684;2022-12-18T13:22:58;11.70;;;8.68;;
42754;SDS011;28407;51.830;5.684;2022-12-18T13:24:59;13.15;;;10.07;;
42754;SDS011;28407;51.830;5.684;2022-12-18T13:27:00;10.53;;;8.43;;
42754;SDS011;28407;51.830;5.684;2022-12-18T13:29:40;10.75;;;8.90;;
42754;SDS011;28407;51.830;5.684;2022-12-18T13:33:48;12.40;;;9.48;;
42754;SDS011;28407;51.830;5.684;2022-12-18T13:42:39;16.33;;;9.93;;
42754;SDS011;28407;51.830;5.684;2022-12-18T13:44:59;13.52;;;9.00;;
42754;SDS011;28407;51.830;5.684;2022-12-18T13:47:00;10.05;;;8.23;;
42754;SDS011;28407;51.830;5.684;2022-12-18T13:51:33;9.85;;;7.72;;